Time;durP1;ratioP1;P1;durP2;ratioP2;P2;SDS_P1;SDS_P2;PMS_P1;PMS_P2;Temp;Humidity;BMP_temperature;BMP_pressure;BME280_temperature;BME280_humidity;BME280_pressure;Samples;Min_cycle;Max_cycle;Signal;HPM_P1;HPM_P2
2022/10/02 00:00:01;;;;;;;2.53;1.00;;;11.40;99.90;;;;;;4939650;28;20345;-52
2022/10/02 00:02:38;;;;;;;1.02;0.75;;;11.40;99.90;;;;;;4934194;28;20050;-53
2022/10/02 00:05:13;;;;;;;4.00;1.17;;;11.40;99.90;;;;;;4939033;28;20542;-53
2022/10/02 00:07:43;;;;;;;2.03;0.82;;;11.40;99.90;;;;;;4936683;28;20414;-53
2022/10/02 00:10:25;;;;;;;2.03;0.80;;;11.40;99.90;;;;;;4938966;28;20219;-53
2022/10/02 00:12:56;;;;;;;2.00;0.70;;;11.40;99.90;;;;;;4938959;28;20038;-53
2022/10/02 00:15:27;;;;;;;1.75;0.70;;;11.40;99.90;;;;;;4938638;28;20211;-54
2022/10/02 00:18:01;;;;;;;1.45;0.95;;;11.40;99.90;;;;;;4935435;28;20503;-52
2022/10/02 00:20:42;;;;;;;6.10;1.20;;;11.40;99.90;;;;;;4936048;28;20328;-52
2022/10/02 00:23:37;;;;;;;4.78;1.10;;;11.40;99.90;;;;;;4941606;28;20137;-53
2022/10/02 00:26:22;;;;;;;5.70;1.10;;;11.40;99.90;;;;;;4937580;28;20163;-53
2022/10/02 00:29:13;;;;;;;1.90;0.80;;;11.40;99.90;;;;;;4939836;28;20497;-53
2022/10/02 00:31:52;;;;;;;1.00;0.95;;;11.40;99.90;;;;;;4936139;28;20069;-53
2022/10/02 00:34:36;;;;;;;1.58;1.00;;;11.40;99.90;;;;;;4939294;28;20084;-52
2022/10/02 00:37:03;;;;;;;2.30;0.90;;;11.40;99.90;;;;;;4938651;28;20559;-54
2022/10/02 00:39:37;;;;;;;1.40;0.75;;;11.40;99.90;;;;;;4937143;28;20449;-52
2022/10/02 00:42:16;;;;;;;1.23;0.90;;;11.40;99.90;;;;;;4934948;28;20191;-52
2022/10/02 00:44:52;;;;;;;1.88;0.98;;;11.40;99.90;;;;;;4934705;28;20385;-52
2022/10/02 00:47:26;;;;;;;2.67;1.48;;;11.40;99.90;;;;;;4939335;28;20225;-52
2022/10/02 00:50:00;;;;;;;3.20;1.02;;;11.40;99.90;;;;;;4951168;28;20097;-53
2022/10/02 00:53:09;;;;;;;5.07;1.50;;;11.50;99.90;;;;;;4942167;28;20522;-53
2022/10/02 00:56:03;;;;;;;2.50;1.25;;;11.50;99.90;;;;;;4935159;28;20451;-52
2022/10/02 00:58:48;;;;;;;5.63;1.33;;;11.50;99.90;;;;;;4938012;28;20572;-52
2022/10/02 01:01:27;;;;;;;2.08;0.73;;;11.50;99.90;;;;;;4936657;28;20311;-52
2022/10/02 01:03:55;;;;;;;4.80;1.13;;;11.50;99.90;;;;;;4937402;28;20076;-53
2022/10/02 01:06:24;;;;;;;4.30;1.25;;;11.50;99.90;;;;;;4936750;28;20052;-53
2022/10/02 01:08:51;;;;;;;1.92;1.20;;;11.50;99.90;;;;;;4940992;28;20071;-52
2022/10/02 01:11:25;;;;;;;3.78;1.10;;;11.50;99.90;;;;;;4937304;28;20550;-51
2022/10/02 01:13:53;;;;;;;6.40;1.30;;;11.50;99.90;;;;;;4935271;28;20497;-53
2022/10/02 01:16:20;;;;;;;6.72;1.30;;;11.50;99.90;;;;;;4940242;28;20368;-53
2022/10/02 01:18:47;;;;;;;5.20;1.30;;;11.50;99.90;;;;;;4940726;28;20080;-54
2022/10/02 01:21:36;;;;;;;4.57;1.40;;;11.50;99.90;;;;;;4931084;28;20046;-54
2022/10/02 01:24:20;;;;;;;3.65;1.20;;;11.50;99.90;;;;;;4936600;28;20689;-54
2022/10/02 01:26:47;;;;;;;3.72;1.20;;;11.50;99.90;;;;;;4953096;28;20578;-53
2022/10/02 01:29:14;;;;;;;;;;;11.50;99.90;;;;;;4935636;28;20050;-52
2022/10/02 01:31:41;;;;;;;1.98;1.00;;;11.50;99.90;;;;;;4932979;28;20243;-54
2022/10/02 01:34:09;;;;;;;3.10;1.45;;;11.50;99.90;;;;;;4940563;28;20034;-52
2022/10/02 01:36:36;;;;;;;6.47;2.05;;;11.40;99.90;;;;;;4936892;28;20402;-51
2022/10/02 01:39:04;;;;;;;7.50;1.50;;;11.40;99.90;;;;;;4935570;28;20203;-53
2022/10/02 01:41:38;;;;;;;6.05;2.00;;;11.40;99.90;;;;;;4934112;28;20060;-53
2022/10/02 01:44:05;;;;;;;5.15;1.83;;;11.40;99.90;;;;;;4934815;28;20450;-52
2022/10/02 01:46:47;;;;;;;5.28;1.73;;;11.40;99.90;;;;;;4939602;28;20756;-53
2022/10/02 01:49:23;;;;;;;7.43;1.73;;;11.40;99.90;;;;;;4931436;28;20492;-53
2022/10/02 01:52:08;;;;;;;10.25;1.75;;;11.40;99.90;;;;;;4935728;28;20053;-52
2022/10/02 01:54:59;;;;;;;8.40;1.90;;;11.30;99.90;;;;;;4932368;28;20706;-52
2022/10/02 01:57:39;;;;;;;2.75;1.40;;;11.30;99.90;;;;;;4935852;28;20319;-52
2022/10/02 02:00:09;;;;;;;5.40;1.90;;;11.30;99.90;;;;;;4939000;28;20053;-53
2022/10/02 02:02:51;;;;;;;5.97;2.25;;;11.30;99.90;;;;;;4935905;28;20228;-53
2022/10/02 02:05:27;;;;;;;7.38;1.50;;;11.30;99.90;;;;;;4936975;28;20515;-52
2022/10/02 02:08:22;;;;;;;3.78;1.48;;;11.30;99.90;;;;;;4937550;28;20945;-52
2022/10/02 02:11:09;;;;;;;5.38;1.40;;;11.30;99.90;;;;;;4934939;28;20422;-53
2022/10/02 02:14:11;;;;;;;7.28;1.80;;;11.30;99.90;;;;;;4938928;28;20057;-53
2022/10/02 02:16:44;;;;;;;5.55;1.92;;;11.30;99.90;;;;;;4936837;28;20168;-53
2022/10/02 02:19:13;;;;;;;6.10;1.55;;;11.30;99.90;;;;;;4935531;28;20674;-54
2022/10/02 02:21:45;;;;;;;5.63;1.60;;;11.30;99.90;;;;;;4948997;28;20073;-54
2022/10/02 02:24:22;;;;;;;7.28;1.80;;;11.30;99.90;;;;;;4938044;28;20586;-54
2022/10/02 02:26:53;;;;;;;7.13;1.48;;;11.30;99.90;;;;;;4935253;28;20296;-54
2022/10/02 02:29:22;;;;;;;6.43;1.70;;;11.30;99.90;;;;;;4936327;28;20444;-53
2022/10/02 02:31:56;;;;;;;16.35;1.70;;;11.30;99.90;;;;;;4937161;28;20442;-53
2022/10/02 02:34:39;;;;;;;5.53;2.08;;;11.30;99.90;;;;;;4936993;28;20396;-53
2022/10/02 02:37:12;;;;;;;8.80;3.45;;;11.40;99.90;;;;;;4954663;28;20385;-53
2022/10/02 02:39:46;;;;;;;6.05;1.48;;;11.40;99.90;;;;;;4931283;28;20520;-53
2022/10/02 02:42:16;;;;;;;12.57;1.77;;;11.40;99.90;;;;;;4935287;28;20341;-53
2022/10/02 02:45:02;;;;;;;7.70;1.67;;;11.40;99.90;;;;;;4942149;28;20221;-54
2022/10/02 02:47:40;;;;;;;8.50;2.05;;;11.40;99.90;;;;;;4940167;28;20212;-53
2022/10/02 02:50:14;;;;;;;3.38;1.38;;;11.40;99.90;;;;;;4938865;28;20407;-53
2022/10/02 02:52:49;;;;;;;7.43;1.90;;;11.40;99.90;;;;;;4941366;28;20529;-52
2022/10/02 02:55:22;;;;;;;4.78;1.88;;;11.40;99.90;;;;;;4938204;28;20037;-53
2022/10/02 02:58:08;;;;;;;8.00;1.95;;;11.40;99.90;;;;;;4939694;28;20054;-55
2022/10/02 03:00:35;;;;;;;6.47;1.45;;;11.40;99.90;;;;;;4942381;28;20222;-52
2022/10/02 03:03:02;;;;;;;7.00;2.15;;;11.40;99.90;;;;;;4937282;28;20611;-53
2022/10/02 03:05:30;;;;;;;5.30;1.45;;;11.40;99.90;;;;;;4936498;28;20716;-52
2022/10/02 03:08:04;;;;;;;8.70;1.83;;;11.40;99.90;;;;;;4937205;28;20314;-52
2022/10/02 03:10:40;;;;;;;4.10;1.50;;;11.40;99.90;;;;;;4935777;28;20046;-54
2022/10/02 03:13:41;;;;;;;6.95;1.90;;;11.40;99.90;;;;;;4940378;28;20791;-54
2022/10/02 03:16:35;;;;;;;3.20;1.40;;;11.40;99.90;;;;;;4940555;28;20426;-53
2022/10/02 03:19:23;;;;;;;4.07;1.30;;;11.40;99.90;;;;;;4942689;28;20393;-54
2022/10/02 03:21:50;;;;;;;;;;;11.40;99.90;;;;;;4938028;28;20197;-53
2022/10/02 03:24:28;;;;;;;6.00;1.48;;;11.50;99.90;;;;;;4936526;28;20353;-53
2022/10/02 03:27:42;;;;;;;4.60;1.52;;;11.50;99.90;;;;;;4938307;28;20158;-54
2022/10/02 03:30:12;;;;;;;11.13;2.08;;;11.40;99.90;;;;;;4883533;29;20051;-53
2022/10/02 03:32:42;;;;;;;8.82;1.80;;;11.50;99.90;;;;;;4882505;29;20309;-54
2022/10/02 03:35:11;;;;;;;5.75;2.08;;;11.50;99.90;;;;;;4914372;28;20581;-53
2022/10/02 03:37:44;;;;;;;9.20;1.70;;;11.50;99.90;;;;;;4937731;28;20541;-53
2022/10/02 03:40:11;;;;;;;6.63;2.03;;;11.50;99.90;;;;;;4952936;28;20049;-52
2022/10/02 03:42:38;;;;;;;;;;;11.50;99.90;;;;;;4938679;28;20333;-54
2022/10/02 03:45:06;;;;;;;4.40;1.65;;;11.50;99.90;;;;;;4935821;28;19925;-51
2022/10/02 03:47:33;;;;;;;11.63;2.63;;;11.50;99.90;;;;;;4941672;28;20473;-52
2022/10/02 03:50:00;;;;;;;4.55;1.55;;;11.50;99.90;;;;;;4941678;28;20046;-52
2022/10/02 03:52:30;;;;;;;;;;;11.60;99.90;;;;;;4938328;28;20105;-53
2022/10/02 03:55:03;;;;;;;5.68;1.30;;;11.60;99.90;;;;;;4937193;28;20490;-55
2022/10/02 03:57:32;;;;;;;6.75;1.42;;;11.60;99.90;;;;;;4936731;28;20418;-53
2022/10/02 04:00:07;;;;;;;4.68;1.50;;;11.60;99.90;;;;;;4932682;28;20583;-52
2022/10/02 04:02:57;;;;;;;8.50;2.05;;;11.60;99.90;;;;;;4937634;28;20208;-52
2022/10/02 04:05:29;;;;;;;1.70;1.17;;;11.60;99.90;;;;;;4947398;28;20339;-53
2022/10/02 04:08:03;;;;;;;9.93;1.38;;;11.60;99.90;;;;;;4936403;28;20667;-52
2022/10/02 04:10:53;;;;;;;3.67;1.20;;;11.70;99.90;;;;;;4935052;28;20050;-52
2022/10/02 04:13:31;;;;;;;3.40;0.90;;;11.70;99.90;;;;;;4937078;28;20057;-53
2022/10/02 04:16:27;;;;;;;1.77;1.10;;;11.70;99.90;;;;;;4939654;28;20045;-52
2022/10/02 04:19:02;;;;;;;3.45;1.25;;;11.80;99.90;;;;;;4932290;28;20060;-53
2022/10/02 04:21:35;;;;;;;4.95;1.42;;;11.80;99.90;;;;;;4934298;28;20291;-53
2022/10/02 04:24:25;;;;;;;4.20;2.03;;;11.80;99.90;;;;;;4940554;28;20525;-53
2022/10/02 04:27:03;;;;;;;1.08;0.90;;;11.80;99.90;;;;;;4937947;28;20367;-53
2022/10/02 04:29:38;;;;;;;4.13;1.52;;;11.80;99.90;;;;;;4940758;28;20051;-53
2022/10/02 04:32:22;;;;;;;1.27;1.13;;;11.80;99.90;;;;;;4941600;28;20377;-53
2022/10/02 04:34:49;;;;;;;0.80;0.80;;;11.90;99.90;;;;;;4936281;28;20049;-52
2022/10/02 04:37:30;;;;;;;1.83;0.70;;;11.90;99.90;;;;;;4938184;28;20068;-53
2022/10/02 04:40:29;;;;;;;0.88;0.88;;;11.90;99.90;;;;;;4933555;28;20418;-53
2022/10/02 04:43:10;;;;;;;2.88;1.05;;;11.90;99.90;;;;;;4941795;28;20733;-52
2022/10/02 04:45:52;;;;;;;4.85;1.00;;;11.90;99.90;;;;;;4936070;28;20064;-52
2022/10/02 04:48:53;;;;;;;5.55;1.35;;;11.90;99.90;;;;;;4940535;28;20155;-55
2022/10/02 04:51:39;;;;;;;6.70;1.40;;;12.00;99.90;;;;;;4934823;28;20042;-54
2022/10/02 04:54:23;;;;;;;3.50;0.90;;;12.00;99.90;;;;;;4937495;28;20321;-54
2022/10/02 04:57:19;;;;;;;3.95;1.55;;;11.90;99.90;;;;;;4938937;28;20498;-52
2022/10/02 05:00:10;;;;;;;3.72;1.05;;;11.90;99.90;;;;;;4938727;28;20166;-53
2022/10/02 05:02:48;;;;;;;6.28;1.10;;;11.90;99.90;;;;;;4934650;28;20374;-52
2022/10/02 05:05:30;;;;;;;1.85;0.90;;;11.90;99.90;;;;;;4936614;28;20313;-53
2022/10/02 05:08:15;;;;;;;3.80;0.90;;;11.90;99.90;;;;;;4936863;28;20283;-54
2022/10/02 05:11:03;;;;;;;2.85;1.13;;;11.80;99.90;;;;;;4933590;28;20409;-53
2022/10/02 05:13:46;;;;;;;3.50;0.90;;;11.90;99.90;;;;;;4940535;28;20157;-54
2022/10/02 05:16:40;;;;;;;5.93;1.13;;;11.90;99.90;;;;;;4932548;28;20959;-55
2022/10/02 05:19:40;;;;;;;1.85;1.02;;;11.80;99.90;;;;;;4936210;28;20272;-53
2022/10/02 05:22:28;;;;;;;1.60;1.08;;;11.80;99.90;;;;;;4937188;28;20215;-54
2022/10/02 05:25:06;;;;;;;3.00;1.00;;;11.80;99.90;;;;;;4934625;28;20314;-54
2022/10/02 05:27:58;;;;;;;2.42;1.20;;;11.80;99.90;;;;;;4936086;28;20050;-53
2022/10/02 05:30:35;;;;;;;4.00;1.05;;;11.90;99.90;;;;;;4938285;28;20050;-53
2022/10/02 05:33:24;;;;;;;3.83;1.20;;;11.90;99.90;;;;;;4936048;28;20227;-54
2022/10/02 05:36:19;;;;;;;6.65;1.38;;;11.90;99.90;;;;;;4937259;28;20081;-53
2022/10/02 05:39:10;;;;;;;6.30;1.20;;;11.90;99.90;;;;;;4944042;28;20780;-52
2022/10/02 05:41:44;;;;;;;4.93;1.38;;;11.90;99.90;;;;;;4937999;28;20801;-54
2022/10/02 05:44:34;;;;;;;1.95;1.15;;;11.90;99.90;;;;;;4938832;28;20049;-54
2022/10/02 05:47:10;;;;;;;4.45;1.40;;;11.90;99.90;;;;;;4934848;28;20372;-52
2022/10/02 05:49:49;;;;;;;2.75;1.10;;;11.90;99.90;;;;;;4935362;28;20331;-53
2022/10/02 05:52:22;;;;;;;1.15;0.95;;;12.00;99.90;;;;;;4929787;28;20278;-55
2022/10/02 05:54:56;;;;;;;5.85;1.42;;;12.00;99.90;;;;;;4950740;28;20073;-53
2022/10/02 05:57:40;;;;;;;2.70;1.27;;;12.00;99.90;;;;;;4936732;28;20370;-54
2022/10/02 06:00:34;;;;;;;1.15;0.80;;;12.00;99.90;;;;;;4936323;28;20045;-55
2022/10/02 06:03:10;;;;;;;9.52;1.60;;;12.00;99.90;;;;;;4936729;28;20073;-54
2022/10/02 06:05:59;;;;;;;2.88;1.20;;;12.00;99.90;;;;;;4937750;28;20380;-53
2022/10/02 06:08:59;;;;;;;2.75;1.15;;;12.00;99.90;;;;;;4939376;28;20856;-54
2022/10/02 06:11:33;;;;;;;2.15;1.63;;;12.00;99.90;;;;;;4935267;28;20558;-54
2022/10/02 06:14:18;;;;;;;4.43;1.42;;;12.00;99.90;;;;;;4939145;28;20689;-53
2022/10/02 06:17:00;;;;;;;5.82;1.30;;;12.10;99.90;;;;;;4937788;28;20053;-54
2022/10/02 06:19:31;;;;;;;4.22;1.52;;;12.10;99.90;;;;;;4942149;28;20084;-52
2022/10/02 06:22:10;;;;;;;8.07;1.63;;;12.10;99.90;;;;;;4917607;28;20693;-53
2022/10/02 06:24:51;;;;;;;2.80;1.02;;;12.10;99.90;;;;;;4937431;28;20203;-53
2022/10/02 06:27:45;;;;;;;4.38;1.20;;;12.10;99.90;;;;;;4925817;28;20180;-52
2022/10/02 06:30:16;;;;;;;5.55;1.88;;;12.20;99.90;;;;;;4926860;28;20266;-51
2022/10/02 06:32:47;;;;;;;3.78;1.60;;;12.20;99.90;;;;;;4939883;28;20038;-53
2022/10/02 06:35:17;;;;;;;4.28;1.23;;;12.30;99.90;;;;;;4942775;28;20147;-52
2022/10/02 06:37:53;;;;;;;4.20;1.50;;;12.40;99.90;;;;;;4934636;28;20412;-52
2022/10/02 06:40:41;;;;;;;2.53;1.67;;;12.40;99.90;;;;;;4938264;28;20633;-52
2022/10/02 06:43:17;;;;;;;4.10;1.65;;;12.50;99.90;;;;;;4927657;28;20378;-52
2022/10/02 06:46:09;;;;;;;6.47;1.60;;;12.60;99.90;;;;;;4935725;28;20242;-53
2022/10/02 06:48:59;;;;;;;1.40;1.20;;;12.70;99.90;;;;;;4937893;28;20235;-54
2022/10/02 06:51:52;;;;;;;2.55;1.38;;;12.80;99.90;;;;;;4936913;28;20057;-54
2022/10/02 06:54:57;;;;;;;5.18;1.85;;;12.90;99.90;;;;;;4939034;28;20376;-53
2022/10/02 06:57:47;;;;;;;2.45;2.10;;;13.00;99.90;;;;;;4933535;28;20214;-54
2022/10/02 07:00:18;;;;;;;4.63;2.20;;;13.20;99.90;;;;;;4936387;28;20419;-51
2022/10/02 07:03:00;;;;;;;2.67;1.92;;;13.30;99.90;;;;;;4943058;28;20111;-53
2022/10/02 07:05:52;;;;;;;5.40;2.20;;;13.40;99.90;;;;;;4942764;28;20065;-53
2022/10/02 07:08:30;;;;;;;1.63;1.52;;;13.50;99.90;;;;;;4938670;28;20050;-53
2022/10/02 07:11:27;;;;;;;4.70;1.80;;;13.60;99.90;;;;;;4935078;28;20358;-52
2022/10/02 07:14:02;;;;;;;2.95;2.30;;;13.70;99.90;;;;;;4940524;28;20394;-53
2022/10/02 07:16:54;;;;;;;2.45;1.52;;;13.70;99.90;;;;;;4925255;28;20559;-53
2022/10/02 07:19:48;;;;;;;1.25;1.20;;;13.80;99.90;;;;;;4934760;28;20058;-54
2022/10/02 07:22:42;;;;;;;2.92;1.25;;;13.80;99.90;;;;;;4934702;28;20389;-53
2022/10/02 07:25:30;;;;;;;1.27;1.15;;;13.80;99.90;;;;;;4937183;28;20349;-52
2022/10/02 07:27:59;;;;;;;2.80;1.70;;;13.90;99.90;;;;;;4936312;28;20292;-52
2022/10/02 07:30:55;;;;;;;3.38;1.85;;;13.90;99.90;;;;;;4935595;28;20531;-51
2022/10/02 07:33:59;;;;;;;4.20;2.55;;;13.90;99.90;;;;;;4935823;28;20082;-54
2022/10/02 07:36:44;;;;;;;4.57;2.75;;;13.90;99.90;;;;;;4937323;28;20515;-55
2022/10/02 07:39:30;;;;;;;3.10;2.30;;;14.00;99.90;;;;;;4935956;28;20392;-54
2022/10/02 07:42:11;;;;;;;6.65;2.15;;;14.00;99.90;;;;;;4938471;28;20042;-54
2022/10/02 07:45:04;;;;;;;3.03;1.10;;;14.10;99.90;;;;;;4936739;28;20156;-53
2022/10/02 07:48:16;;;;;;;3.00;1.08;;;14.10;99.90;;;;;;4937073;28;20745;-53
2022/10/02 07:54:28;;;;;;;0.93;0.73;;;14.20;99.90;;;;;;4942691;28;20433;-54
2022/10/02 07:57:01;;;;;;;2.08;0.70;;;14.20;99.90;;;;;;4943596;28;20471;-52
2022/10/02 07:59:39;;;;;;;3.70;0.70;;;14.30;99.90;;;;;;4937488;28;20361;-55
2022/10/02 08:02:14;;;;;;;2.97;0.40;;;14.40;99.90;;;;;;4919953;28;20350;-53
2022/10/02 08:04:41;;;;;;;1.05;0.38;;;14.50;99.90;;;;;;4934035;28;20037;-53
2022/10/02 08:07:09;;;;;;;1.02;0.40;;;14.60;99.90;;;;;;4958590;28;20606;-55
2022/10/02 08:09:42;;;;;;;0.30;0.30;;;14.60;99.90;;;;;;4935266;28;20362;-56
2022/10/02 08:12:27;;;;;;;0.20;0.20;;;14.70;99.90;;;;;;4940806;28;20295;-62
2022/10/02 08:14:57;;;;;;;1.10;0.50;;;14.70;99.90;;;;;;4935176;28;20713;-54
2022/10/02 08:17:43;;;;;;;1.08;0.30;;;14.70;99.90;;;;;;4933231;28;20607;-53
2022/10/02 08:20:16;;;;;;;2.70;0.68;;;14.70;99.90;;;;;;4938389;28;20327;-54
2022/10/02 08:22:52;;;;;;;2.35;0.20;;;14.70;99.90;;;;;;4936004;28;20132;-56
2022/10/02 08:25:36;;;;;;;0.63;0.40;;;14.70;99.90;;;;;;4936191;28;20297;-54
2022/10/02 08:28:27;;;;;;;0.30;0.30;;;14.80;99.90;;;;;;4953466;28;20536;-53
2022/10/02 08:30:54;;;;;;;1.63;1.50;;;14.90;99.90;;;;;;4950696;28;20042;-56
2022/10/02 08:33:21;;;;;;;0.57;0.30;;;15.20;99.90;;;;;;4936739;28;20038;-52
2022/10/02 08:36:01;;;;;;;1.50;0.40;;;15.50;99.90;;;;;;4941847;28;20045;-52
2022/10/02 08:38:50;;;;;;;0.98;0.70;;;15.70;99.90;;;;;;4941646;28;20467;-53
2022/10/02 08:41:29;;;;;;;1.50;0.40;;;15.90;99.90;;;;;;4934845;28;20215;-53
2022/10/02 08:44:38;;;;;;;2.75;0.32;;;16.00;99.90;;;;;;4939181;28;20488;-52
2022/10/02 08:47:27;;;;;;;0.25;0.25;;;16.00;99.90;;;;;;4935429;28;20062;-50
2022/10/02 08:50:28;;;;;;;1.02;0.30;;;16.00;99.90;;;;;;4934057;28;20420;-52
2022/10/02 08:53:33;;;;;;;0.38;0.30;;;15.90;99.90;;;;;;4936812;28;20207;-54
2022/10/02 08:56:32;;;;;;;0.52;0.50;;;15.90;99.90;;;;;;4938850;28;20149;-54
2022/10/02 08:58:59;;;;;;;0.30;0.30;;;15.80;99.90;;;;;;4938105;28;20057;-54
2022/10/02 09:01:56;;;;;;;0.32;0.17;;;15.80;99.90;;;;;;4940477;28;20273;-55
2022/10/02 09:04:58;;;;;;;0.30;0.30;;;15.80;99.90;;;;;;4942626;28;20563;-53
2022/10/02 09:07:38;;;;;;;0.95;0.35;;;16.00;99.90;;;;;;4942197;28;20049;-55
2022/10/02 09:10:36;;;;;;;0.30;0.30;;;16.20;99.90;;;;;;4937530;28;21112;-54
2022/10/02 09:13:22;;;;;;;0.85;0.30;;;16.40;99.90;;;;;;4939818;28;20804;-54
2022/10/02 09:16:08;;;;;;;0.20;0.13;;;16.50;99.90;;;;;;4952991;28;20053;-52
2022/10/02 09:19:20;;;;;;;0.20;0.20;;;16.60;99.90;;;;;;4943767;28;20477;-58
2022/10/02 09:21:47;;;;;;;2.22;0.35;;;16.60;99.90;;;;;;4945617;28;20672;-53
2022/10/02 09:24:45;;;;;;;3.90;0.68;;;16.70;99.90;;;;;;4938471;28;20058;-53
2022/10/02 09:27:30;;;;;;;0.40;0.40;;;16.70;99.90;;;;;;4937198;28;20425;-54
2022/10/02 09:30:03;;;;;;;0.47;0.43;;;16.60;99.90;;;;;;4935027;28;20408;-54
2022/10/02 09:33:08;;;;;;;0.52;0.25;;;16.60;99.90;;;;;;4937295;28;20038;-52
2022/10/02 09:36:15;;;;;;;0.32;0.28;;;16.60;99.90;;;;;;4940068;28;20340;-53
2022/10/02 09:38:51;;;;;;;0.43;0.40;;;16.50;99.90;;;;;;4939787;28;20053;-54
2022/10/02 09:41:56;;;;;;;0.32;0.30;;;16.40;99.90;;;;;;4934837;28;21011;-60
2022/10/02 09:45:00;;;;;;;0.40;0.32;;;16.40;99.90;;;;;;4941174;28;20228;-58
2022/10/02 09:47:46;;;;;;;1.58;0.93;;;16.30;99.90;;;;;;4937928;28;20787;-56
2022/10/02 09:50:22;;;;;;;0.82;0.50;;;16.20;99.90;;;;;;4934112;28;20345;-56
2022/10/02 09:53:04;;;;;;;0.20;0.20;;;16.20;99.90;;;;;;4943561;28;20368;-56
2022/10/02 09:55:35;;;;;;;1.15;0.28;;;16.20;99.90;;;;;;4937976;28;20208;-56
2022/10/02 09:58:27;;;;;;;11.48;0.50;;;16.20;99.90;;;;;;4943681;28;20219;-54
2022/10/02 10:01:44;;;;;;;0.40;0.40;;;16.30;99.90;;;;;;4942239;28;20344;-54
2022/10/02 10:04:26;;;;;;;2.92;0.50;;;16.50;99.90;;;;;;4942417;28;20733;-55
2022/10/02 10:07:38;;;;;;;0.43;0.40;;;16.60;99.90;;;;;;4941227;28;20045;-53
2022/10/02 10:10:29;;;;;;;1.27;0.28;;;16.70;99.90;;;;;;4940970;28;20351;-55
2022/10/02 10:12:56;;;;;;;1.02;0.43;;;16.90;99.90;;;;;;4935700;28;20045;-54
2022/10/02 10:15:45;;;;;;;2.28;0.13;;;17.00;99.90;;;;;;4941863;28;20145;-55
2022/10/02 10:18:46;;;;;;;0.22;0.20;;;17.10;99.90;;;;;;4945186;28;20111;-55
2022/10/02 10:21:51;;;;;;;0.10;0.10;;;17.00;99.90;;;;;;4938856;28;20421;-56
2022/10/02 10:24:30;;;;;;;6.03;0.40;;;16.90;99.90;;;;;;4937860;28;20131;-56
2022/10/02 10:27:16;;;;;;;0.28;0.20;;;16.80;99.90;;;;;;4942711;28;20347;-55
2022/10/02 10:30:03;;;;;;;0.38;0.38;;;16.60;99.90;;;;;;4941055;28;20148;-53
2022/10/02 10:33:00;;;;;;;0.43;0.28;;;16.50;99.90;;;;;;4958729;28;20343;-53
2022/10/02 10:35:39;;;;;;;0.20;0.20;;;16.40;99.90;;;;;;4945451;28;20372;-56
2022/10/02 10:38:31;;;;;;;0.22;0.22;;;16.20;99.90;;;;;;4941730;28;20335;-54
2022/10/02 10:41:01;;;;;;;0.50;0.50;;;16.10;99.90;;;;;;4941032;28;20548;-56
2022/10/02 10:43:50;;;;;;;0.45;0.40;;;16.00;99.90;;;;;;4938266;28;20073;-54
2022/10/02 10:46:44;;;;;;;1.25;0.43;;;15.90;99.90;;;;;;4940886;28;20445;-55
2022/10/02 10:49:34;;;;;;;1.83;0.50;;;15.90;99.90;;;;;;4941265;28;20717;-53
2022/10/02 10:52:27;;;;;;;0.60;0.60;;;15.80;99.90;;;;;;4952451;28;20307;-55
2022/10/02 10:55:06;;;;;;;2.55;0.50;;;15.70;99.90;;;;;;4937971;28;20046;-53
2022/10/02 10:57:59;;;;;;;1.55;0.40;;;15.60;99.90;;;;;;4959272;28;20370;-55
2022/10/02 11:00:46;;;;;;;1.52;0.75;;;15.60;99.90;;;;;;4934450;28;20417;-54
2022/10/02 11:03:35;;;;;;;0.57;0.50;;;15.60;99.90;;;;;;4937815;28;20381;-53
2022/10/02 11:06:21;;;;;;;0.98;0.45;;;15.50;99.90;;;;;;4937312;28;20373;-53
2022/10/02 11:09:22;;;;;;;1.65;0.38;;;15.40;99.90;;;;;;4955979;28;20073;-53
2022/10/02 11:11:59;;;;;;;0.50;0.40;;;15.40;99.90;;;;;;4935924;28;20772;-53
2022/10/02 11:14:46;;;;;;;;;;;15.30;99.90;;;;;;4940341;28;20763;-54
2022/10/02 11:17:39;;;;;;;1.52;0.50;;;15.20;99.90;;;;;;4940598;28;19929;-53
2022/10/02 11:20:16;;;;;;;1.35;0.40;;;15.10;99.90;;;;;;4935530;28;20500;-56
2022/10/02 11:22:57;;;;;;;0.73;0.30;;;15.00;99.90;;;;;;4939497;28;20310;-55
2022/10/02 11:25:51;;;;;;;1.83;0.68;;;14.90;99.90;;;;;;4943181;28;20149;-52
2022/10/02 11:28:59;;;;;;;0.45;0.30;;;14.90;99.90;;;;;;4935609;28;20117;-55
2022/10/02 11:31:45;;;;;;;0.65;0.50;;;14.80;99.90;;;;;;4933148;28;20127;-54
2022/10/02 11:34:49;;;;;;;0.57;0.40;;;14.80;99.90;;;;;;4939969;28;20482;-54
2022/10/02 11:37:37;;;;;;;0.40;0.30;;;14.70;99.90;;;;;;4938743;28;20046;-55
2022/10/02 11:40:21;;;;;;;0.30;0.30;;;14.70;99.90;;;;;;4938613;28;20069;-54
2022/10/02 11:43:10;;;;;;;0.52;0.45;;;14.80;99.90;;;;;;4936803;28;20419;-52
2022/10/02 11:46:01;;;;;;;0.50;0.40;;;14.70;99.90;;;;;;4938871;28;20049;-53
2022/10/02 11:48:50;;;;;;;0.47;0.47;;;14.70;99.90;;;;;;4943999;28;20305;-54
2022/10/02 11:51:31;;;;;;;0.40;0.40;;;14.80;99.90;;;;;;4938164;28;20096;-55
2022/10/02 11:54:18;;;;;;;0.20;0.20;;;14.80;99.90;;;;;;4940866;28;20035;-54
2022/10/02 11:57:06;;;;;;;0.50;0.40;;;14.90;99.90;;;;;;4934040;28;20362;-55
2022/10/02 12:00:06;;;;;;;0.20;0.20;;;15.00;99.90;;;;;;4938501;28;20145;-55
2022/10/02 12:03:15;;;;;;;1.48;0.40;;;15.00;99.90;;;;;;4938862;28;20116;-54
2022/10/02 12:06:14;;;;;;;0.90;0.40;;;15.00;99.90;;;;;;4933025;28;20362;-52
2022/10/02 12:08:57;;;;;;;0.68;0.40;;;15.10;99.90;;;;;;4938000;28;20759;-54
2022/10/02 12:11:43;;;;;;;0.73;0.45;;;15.10;99.90;;;;;;4928861;28;20353;-54
2022/10/02 12:14:49;;;;;;;0.73;0.30;;;15.10;99.90;;;;;;4941473;28;20492;-53
2022/10/02 12:17:40;;;;;;;0.40;0.40;;;15.00;99.90;;;;;;4913254;28;20430;-55
2022/10/02 12:29:39;;;;;;;0.30;0.30;;;15.00;99.90;;;;;;4937444;28;20488;-54
2022/10/02 12:32:35;;;;;;;0.28;0.28;;;15.00;99.90;;;;;;4937444;28;20540;-54
2022/10/02 12:35:41;;;;;;;0.30;0.30;;;15.10;99.90;;;;;;4938424;28;20292;-53
2022/10/02 12:38:46;;;;;;;0.98;0.32;;;15.10;99.90;;;;;;4937491;28;20050;-52
2022/10/02 12:41:41;;;;;;;1.67;0.30;;;15.20;99.90;;;;;;4931623;28;20073;-53
2022/10/02 12:44:33;;;;;;;3.15;0.45;;;15.20;99.90;;;;;;4944062;28;20050;-54
2022/10/02 12:47:19;;;;;;;0.30;0.30;;;15.30;99.90;;;;;;4938955;28;20867;-54
2022/10/02 12:50:23;;;;;;;0.93;0.73;;;15.30;99.90;;;;;;4953811;28;20184;-54
2022/10/02 12:53:21;;;;;;;2.95;2.03;;;15.40;99.90;;;;;;4932809;28;20053;-53
2022/10/02 12:56:26;;;;;;;2.40;0.32;;;15.60;99.90;;;;;;4936336;28;20272;-56
2022/10/02 12:58:58;;;;;;;0.40;0.40;;;15.70;99.90;;;;;;4930615;28;20042;-53
2022/10/02 13:01:41;;;;;;;1.20;1.10;;;15.90;99.90;;;;;;4935982;28;20709;-52
2022/10/02 13:04:23;;;;;;;3.25;2.95;;;16.00;99.90;;;;;;4938339;28;20542;-53
2022/10/02 13:07:40;;;;;;;1.38;0.60;;;16.20;99.90;;;;;;4923867;28;20690;-52
2022/10/02 13:10:35;;;;;;;1.02;0.43;;;16.30;99.90;;;;;;4938796;28;20441;-53
2022/10/02 13:13:24;;;;;;;0.40;0.35;;;16.40;99.90;;;;;;4938193;28;20041;-57
2022/10/02 13:16:07;;;;;;;0.98;0.30;;;16.60;99.90;;;;;;4937351;28;20258;-54
2022/10/02 13:19:18;;;;;;;0.40;0.40;;;16.70;99.90;;;;;;4948618;28;20042;-54
2022/10/02 13:22:16;;;;;;;0.32;0.32;;;16.90;99.90;;;;;;4904877;28;20077;-57
2022/10/02 13:25:11;;;;;;;0.43;0.43;;;17.10;99.90;;;;;;4903091;28;20054;-55
2022/10/02 13:27:48;;;;;;;0.47;0.32;;;17.30;99.90;;;;;;4926221;28;20524;-55
2022/10/02 13:30:16;;;;;;;;;;;17.40;99.90;;;;;;4938007;28;20053;-56
2022/10/02 13:32:55;;;;;;;0.30;0.30;;;17.50;99.90;;;;;;4937868;28;20657;-55
2022/10/02 13:35:45;;;;;;;0.30;0.30;;;17.50;99.90;;;;;;4934775;28;20439;-56
2022/10/02 13:38:31;;;;;;;0.77;0.52;;;17.50;99.90;;;;;;4933281;28;20397;-56
2022/10/02 13:41:04;;;;;;;0.80;0.77;;;17.50;99.90;;;;;;4928105;28;20812;-53
2022/10/02 13:43:36;;;;;;;0.95;0.70;;;17.50;99.90;;;;;;4931779;28;20182;-58
2022/10/02 13:46:43;;;;;;;0.60;0.60;;;17.40;99.90;;;;;;4927808;28;20447;-56
2022/10/02 13:49:19;;;;;;;0.93;0.52;;;17.30;99.90;;;;;;4953678;28;20452;-53
2022/10/02 13:52:09;;;;;;;0.30;0.30;;;17.30;99.90;;;;;;4958135;28;20845;-53
2022/10/02 13:54:56;;;;;;;0.50;0.50;;;17.20;99.90;;;;;;4943424;28;20044;-53
2022/10/02 13:57:54;;;;;;;1.90;0.70;;;17.20;99.90;;;;;;4965141;28;20045;-57
2022/10/02 14:00:36;;;;;;;0.30;0.30;;;17.20;99.90;;;;;;4929016;28;20426;-53
2022/10/02 14:03:33;;;;;;;2.50;0.40;;;17.30;99.90;;;;;;4940929;28;20481;-53
2022/10/02 14:06:14;;;;;;;2.40;0.50;;;17.40;99.90;;;;;;4919751;28;20057;-53
2022/10/02 14:09:00;;;;;;;0.40;0.40;;;17.40;99.90;;;;;;4929962;28;20397;-57
2022/10/02 14:11:55;;;;;;;1.67;0.95;;;17.50;99.90;;;;;;4944835;28;20699;-53
2022/10/02 14:14:55;;;;;;;0.82;0.52;;;17.50;99.90;;;;;;4958121;28;20760;-51
2022/10/02 14:17:36;;;;;;;0.40;0.40;;;17.50;99.90;;;;;;4963844;28;20098;-53
2022/10/02 14:20:52;;;;;;;1.15;0.50;;;17.50;99.90;;;;;;4966708;28;20034;-60
2022/10/02 14:23:19;;;;;;;0.68;0.32;;;17.40;99.90;;;;;;4926585;28;20168;-54
2022/10/02 14:26:15;;;;;;;0.43;0.43;;;17.40;99.90;;;;;;4965606;28;20869;-52